Terminal Aerodrome Forecast
Issued by NWS Miami, FL

Home | Current Version | Previous Version | Text Only | Print | Product List | Glossary On
Versions: 1 2 3 4 5 6 7 8 9 10 11 12 13 14 15 16 17 18 19 20 21 22 23 24 25 26 27 28 29 30 31 32 33 34 35 36 37 38 39 40 41 42 43 44 45 46 47 48 49 50
000
FTUS42 KMFL 060550 RRA
TAFPBI
TAF
KPBI 060550Z 0606/0706 05008KT 2SM -RA SCT009 BKN025 OVC045
      TEMPO 0606/0609 02008KT P6SM -SHRA SCT009 BKN025 OVC045
     FM060900 34006KT P6SM VCSH SCT009 BKN025 OVC045
      TEMPO 0609/0612 02008KT P6SM -SHRA SCT009 BKN025 OVC045
     FM061200 31007KT P6SM VCSH SCT025 BKN100
     FM061500 31006KT P6SM VCSH SCT025 BKN050
     FM061800 12010KT P6SM VCSH SCT025 BKN050
     FM062100 12010KT P6SM VCSH BKN250
     FM070000 15007KT P6SM BKN250=

USA.gov is the U.S. government's official web portal to all federal, state and local government web resources and services.